sensor_id;sensor_type;location;lat;lon;timestamp;pressure;altitude;pressure_sealevel;temperature;humidity
24280;BME280;12395;42.808;23.408;2023-02-03T00:00:07;95105.53;;;2.09;96.09
24280;BME280;12395;42.808;23.408;2023-02-03T00:02:33;95114.78;;;2.03;96.44
24280;BME280;12395;42.808;23.408;2023-02-03T00:04:58;95103.81;;;2.00;96.98
24280;BME280;12395;42.808;23.408;2023-02-03T00:07:23;95089.38;;;1.88;97.76
24280;BME280;12395;42.808;23.408;2023-02-03T00:09:49;95115.94;;;2.01;97.96
24280;BME280;12395;42.808;23.408;2023-02-03T00:12:14;95107.56;;;1.97;97.99
24280;BME280;12395;42.808;23.408;2023-02-03T00:14:40;95105.38;;;1.93;98.25
24280;BME280;12395;42.808;23.408;2023-02-03T00:17:05;95124.28;;;2.04;98.20
24280;BME280;12395;42.808;23.408;2023-02-03T00:19:30;95132.94;;;2.05;98.89
24280;BME280;12395;42.808;23.408;2023-02-03T00:21:56;95127.34;;;2.00;99.14
24280;BME280;12395;42.808;23.408;2023-02-03T00:24:21;95120.16;;;2.02;99.06
24280;BME280;12395;42.808;23.408;2023-02-03T00:26:48;95121.72;;;1.95;99.64
24280;BME280;12395;42.808;23.408;2023-02-03T00:29:14;95125.84;;;1.97;100.00
24280;BME280;12395;42.808;23.408;2023-02-03T00:31:39;95107.03;;;1.94;100.00
24280;BME280;12395;42.808;23.408;2023-02-03T00:34:05;95128.69;;;2.04;100.00
24280;BME280;12395;42.808;23.408;2023-02-03T00:36:30;95126.22;;;2.02;100.00
24280;BME280;12395;42.808;23.408;2023-02-03T00:38:56;95123.78;;;2.01;100.00
24280;BME280;12395;42.808;23.408;2023-02-03T00:41:22;95126.44;;;1.91;100.00
24280;BME280;12395;42.808;23.408;2023-02-03T00:43:48;95134.50;;;1.98;100.00
24280;BME280;12395;42.808;23.408;2023-02-03T00:46:13;95132.19;;;1.95;100.00
24280;BME280;12395;42.808;23.408;2023-02-03T00:48:39;95145.63;;;2.00;100.00
24280;BME280;12395;42.808;23.408;2023-02-03T00:51:05;95152.78;;;1.98;100.00
24280;BME280;12395;42.808;23.408;2023-02-03T00:53:31;95141.72;;;1.86;100.00
24280;BME280;12395;42.808;23.408;2023-02-03T00:55:56;95136.00;;;1.83;100.00
24280;BME280;12395;42.808;23.408;2023-02-03T00:58:22;95139.00;;;1.88;100.00
24280;BME280;12395;42.808;23.408;2023-02-03T01:00:47;95133.59;;;1.89;100.00
24280;BME280;12395;42.808;23.408;2023-02-03T01:03:13;95124.22;;;1.79;100.00
24280;BME280;12395;42.808;23.408;2023-02-03T01:05:39;95144.34;;;1.86;100.00
24280;BME280;12395;42.808;23.408;2023-02-03T01:08:04;95140.38;;;1.82;100.00
24280;BME280;12395;42.808;23.408;2023-02-03T01:10:30;95130.03;;;1.73;100.00
24280;BME280;12395;42.808;23.408;2023-02-03T01:12:55;95151.50;;;1.84;100.00
24280;BME280;12395;42.808;23.408;2023-02-03T01:15:20;95147.44;;;1.82;100.00
24280;BME280;12395;42.808;23.408;2023-02-03T01:17:46;95141.81;;;1.77;100.00
24280;BME280;12395;42.808;23.408;2023-02-03T01:20:11;95152.78;;;1.80;100.00
24280;BME280;12395;42.808;23.408;2023-02-03T01:22:38;95150.84;;;1.82;100.00
24280;BME280;12395;42.808;23.408;2023-02-03T01:25:04;95150.47;;;1.77;100.00
24280;BME280;12395;42.808;23.408;2023-02-03T01:27:31;95114.50;;;1.53;100.00
24280;BME280;12395;42.808;23.408;2023-02-03T01:29:56;95136.53;;;1.69;100.00
24280;BME280;12395;42.808;23.408;2023-02-03T01:32:21;95120.47;;;1.64;100.00
24280;BME280;12395;42.808;23.408;2023-02-03T01:34:47;95133.31;;;1.75;100.00
24280;BME280;12395;42.808;23.408;2023-02-03T01:37:12;95144.59;;;1.75;100.00
24280;BME280;12395;42.808;23.408;2023-02-03T01:39:41;95146.22;;;1.76;100.00
24280;BME280;12395;42.808;23.408;2023-02-03T01:42:08;95136.97;;;1.64;100.00
24280;BME280;12395;42.808;23.408;2023-02-03T01:47:31;95149.03;;;1.65;100.00
24280;BME280;12395;42.808;23.408;2023-02-03T01:52:33;95153.22;;;1.58;100.00
24280;BME280;12395;42.808;23.408;2023-02-03T01:55:02;95147.09;;;1.49;100.00
24280;BME280;12395;42.808;23.408;2023-02-03T01:57:49;95139.50;;;1.56;100.00
24280;BME280;12395;42.808;23.408;2023-02-03T02:00:16;95144.72;;;1.56;100.00
24280;BME280;12395;42.808;23.408;2023-02-03T02:02:43;95162.44;;;1.52;100.00
24280;BME280;12395;42.808;23.408;2023-02-03T02:05:24;95166.31;;;1.48;100.00
24280;BME280;12395;42.808;23.408;2023-02-03T02:07:52;95166.81;;;1.34;100.00
24280;BME280;12395;42.808;23.408;2023-02-03T02:10:19;95161.00;;;1.40;100.00
24280;BME280;12395;42.808;23.408;2023-02-03T02:12:45;95170.34;;;1.43;100.00
24280;BME280;12395;42.808;23.408;2023-02-03T02:15:11;95144.34;;;1.24;100.00
24280;BME280;12395;42.808;23.408;2023-02-03T02:17:51;95179.44;;;1.39;100.00
24280;BME280;12395;42.808;23.408;2023-02-03T02:20:31;95173.38;;;1.38;100.00
24280;BME280;12395;42.808;23.408;2023-02-03T02:26:09;95173.00;;;1.33;100.00
24280;BME280;12395;42.808;23.408;2023-02-03T02:39:43;95178.06;;;1.35;100.00
24280;BME280;12395;42.808;23.408;2023-02-03T02:42:22;95175.59;;;1.33;100.00
24280;BME280;12395;42.808;23.408;2023-02-03T02:44:55;95176.13;;;1.37;100.00
24280;BME280;12395;42.808;23.408;2023-02-03T02:47:23;95187.78;;;1.42;100.00
24280;BME280;12395;42.808;23.408;2023-02-03T02:50:00;95190.63;;;1.49;100.00
24280;BME280;12395;42.808;23.408;2023-02-03T02:52:29;95178.44;;;1.40;100.00
24280;BME280;12395;42.808;23.408;2023-02-03T02:55:04;95186.25;;;1.49;100.00
24280;BME280;12395;42.808;23.408;2023-02-03T02:57:33;95182.41;;;1.44;100.00
24280;BME280;12395;42.808;23.408;2023-02-03T03:00:02;95194.75;;;1.51;100.00
24280;BME280;12395;42.808;23.408;2023-02-03T03:02:35;95202.66;;;1.60;100.00
24280;BME280;12395;42.808;23.408;2023-02-03T03:05:05;95207.59;;;1.63;100.00
24280;BME280;12395;42.808;23.408;2023-02-03T03:07:37;95201.25;;;1.47;100.00
24280;BME280;12395;42.808;23.408;2023-02-03T03:10:09;95201.09;;;1.49;100.00
24280;BME280;12395;42.808;23.408;2023-02-03T03:12:44;95189.31;;;1.35;100.00
24280;BME280;12395;42.808;23.408;2023-02-03T03:15:18;95210.28;;;1.43;100.00
24280;BME280;12395;42.808;23.408;2023-02-03T03:17:52;95216.09;;;1.37;100.00
24280;BME280;12395;42.808;23.408;2023-02-03T03:20:24;95225.88;;;1.35;100.00
24280;BME280;12395;42.808;23.408;2023-02-03T03:22:56;95223.25;;;1.35;100.00
24280;BME280;12395;42.808;23.408;2023-02-03T03:25:29;95223.59;;;1.23;100.00
24280;BME280;12395;42.808;23.408;2023-02-03T03:27:59;95221.22;;;1.29;100.00
24280;BME280;12395;42.808;23.408;2023-02-03T03:30:29;95221.41;;;1.18;100.00
24280;BME280;12395;42.808;23.408;2023-02-03T03:32:57;95234.44;;;1.18;100.00
24280;BME280;12395;42.808;23.408;2023-02-03T03:35:23;95232.81;;;1.08;100.00
24280;BME280;12395;42.808;23.408;2023-02-03T03:40:23;95247.91;;;1.14;100.00
24280;BME280;12395;42.808;23.408;2023-02-03T03:42:56;95245.84;;;1.17;100.00
24280;BME280;12395;42.808;23.408;2023-02-03T03:48:04;95242.81;;;1.22;100.00
24280;BME280;12395;42.808;23.408;2023-02-03T03:50:37;95245.28;;;1.23;100.00
24280;BME280;12395;42.808;23.408;2023-02-03T03:53:06;95245.97;;;1.25;100.00
24280;BME280;12395;42.808;23.408;2023-02-03T03:55:35;95231.97;;;1.17;100.00
24280;BME280;12395;42.808;23.408;2023-02-03T03:58:03;95248.72;;;1.24;100.00
24280;BME280;12395;42.808;23.408;2023-02-03T04:00:31;95234.88;;;1.14;100.00
24280;BME280;12395;42.808;23.408;2023-02-03T04:03:03;95245.03;;;1.17;100.00
24280;BME280;12395;42.808;23.408;2023-02-03T04:05:30;95225.97;;;1.07;100.00
24280;BME280;12395;42.808;23.408;2023-02-03T04:07:56;95220.50;;;1.00;100.00
24280;BME280;12395;42.808;23.408;2023-02-03T04:10:33;95244.09;;;1.08;100.00
24280;BME280;12395;42.808;23.408;2023-02-03T04:12:59;95245.72;;;1.09;100.00
24280;BME280;12395;42.808;23.408;2023-02-03T04:15:25;95234.06;;;1.04;100.00
24280;BME280;12395;42.808;23.408;2023-02-03T04:17:50;95244.94;;;1.09;100.00
24280;BME280;12395;42.808;23.408;2023-02-03T04:20:16;95251.38;;;1.05;100.00
24280;BME280;12395;42.808;23.408;2023-02-03T04:22:42;95264.66;;;1.11;100.00
24280;BME280;12395;42.808;23.408;2023-02-03T04:25:07;95244.38;;;1.05;100.00
24280;BME280;12395;42.808;23.408;2023-02-03T04:27:34;95251.13;;;0.98;100.00
24280;BME280;12395;42.808;23.408;2023-02-03T04:29:59;95263.44;;;1.06;100.00
24280;BME280;12395;42.808;23.408;2023-02-03T04:32:25;95255.78;;;0.95;100.00
24280;BME280;12395;42.808;23.408;2023-02-03T04:34:50;95263.50;;;0.96;100.00
24280;BME280;12395;42.808;23.408;2023-02-03T04:37:15;95278.44;;;1.04;100.00
24280;BME280;12395;42.808;23.408;2023-02-03T04:39:41;95264.44;;;0.95;99.84
24280;BME280;12395;42.808;23.408;2023-02-03T04:42:06;95280.22;;;1.03;99.76
24280;BME280;12395;42.808;23.408;2023-02-03T04:44:32;95269.91;;;1.02;99.31
24280;BME280;12395;42.808;23.408;2023-02-03T04:46:57;95287.75;;;1.06;99.31
24280;BME280;12395;42.808;23.408;2023-02-03T04:49:22;95289.25;;;1.18;99.27
24280;BME280;12395;42.808;23.408;2023-02-03T04:51:48;95305.56;;;1.30;98.37
24280;BME280;12395;42.808;23.408;2023-02-03T04:54:14;95297.75;;;1.30;97.97
24280;BME280;12395;42.808;23.408;2023-02-03T04:56:39;95301.13;;;1.40;97.54
24280;BME280;12395;42.808;23.408;2023-02-03T04:59:05;95308.53;;;1.44;97.12
24280;BME280;12395;42.808;23.408;2023-02-03T05:01:31;95303.84;;;1.48;96.79
24280;BME280;12395;42.808;23.408;2023-02-03T05:03:56;95283.78;;;1.48;96.68
24280;BME280;12395;42.808;23.408;2023-02-03T05:06:26;95297.25;;;1.53;96.25
24280;BME280;12395;42.808;23.408;2023-02-03T05:08:53;95304.34;;;1.61;96.18
24280;BME280;12395;42.808;23.408;2023-02-03T05:11:18;95306.72;;;1.54;95.93
24280;BME280;12395;42.808;23.408;2023-02-03T05:13:44;95298.63;;;1.48;96.26
24280;BME280;12395;42.808;23.408;2023-02-03T05:16:09;95300.28;;;1.49;96.30
24280;BME280;12395;42.808;23.408;2023-02-03T05:18:34;95324.41;;;1.61;96.35
24280;BME280;12395;42.808;23.408;2023-02-03T05:21:00;95303.72;;;1.49;96.27
24280;BME280;12395;42.808;23.408;2023-02-03T05:23:26;95314.44;;;1.37;96.63
24280;BME280;12395;42.808;23.408;2023-02-03T05:25:51;95318.47;;;1.31;97.38
24280;BME280;12395;42.808;23.408;2023-02-03T05:28:16;95317.56;;;1.13;97.99
24280;BME280;12395;42.808;23.408;2023-02-03T05:30:42;95320.69;;;1.17;98.96
24280;BME280;12395;42.808;23.408;2023-02-03T05:33:07;95320.84;;;1.06;99.07
24280;BME280;12395;42.808;23.408;2023-02-03T05:35:33;95334.16;;;1.03;99.44
24280;BME280;12395;42.808;23.408;2023-02-03T05:37:58;95315.50;;;0.88;100.00
24280;BME280;12395;42.808;23.408;2023-02-03T05:40:24;95319.91;;;0.97;99.63
24280;BME280;12395;42.808;23.408;2023-02-03T05:43:08;95322.94;;;1.02;99.37
24280;BME280;12395;42.808;23.408;2023-02-03T05:45:33;95322.38;;;1.08;99.14
24280;BME280;12395;42.808;23.408;2023-02-03T05:47:59;95325.66;;;1.01;98.50
24280;BME280;12395;42.808;23.408;2023-02-03T05:50:29;95339.94;;;1.06;98.57
24280;BME280;12395;42.808;23.408;2023-02-03T05:52:59;95315.22;;;1.01;98.43
24280;BME280;12395;42.808;23.408;2023-02-03T05:55:26;95328.69;;;1.06;98.67
24280;BME280;12395;42.808;23.408;2023-02-03T05:57:51;95341.88;;;1.04;98.71
24280;BME280;12395;42.808;23.408;2023-02-03T06:00:17;95330.88;;;1.01;98.77
24280;BME280;12395;42.808;23.408;2023-02-03T06:02:42;95337.03;;;1.09;97.91
24280;BME280;12395;42.808;23.408;2023-02-03T06:05:08;95331.44;;;1.04;97.53
24280;BME280;12395;42.808;23.408;2023-02-03T06:07:33;95344.03;;;1.18;97.47
24280;BME280;12395;42.808;23.408;2023-02-03T06:09:59;95324.56;;;1.13;97.30
24280;BME280;12395;42.808;23.408;2023-02-03T06:12:24;95337.44;;;1.14;96.79
24280;BME280;12395;42.808;23.408;2023-02-03T06:14:50;95341.16;;;1.21;96.82
24280;BME280;12395;42.808;23.408;2023-02-03T06:17:15;95351.03;;;1.27;96.55
24280;BME280;12395;42.808;23.408;2023-02-03T06:19:40;95343.19;;;1.27;96.32
24280;BME280;12395;42.808;23.408;2023-02-03T06:22:06;95335.09;;;1.30;96.21
24280;BME280;12395;42.808;23.408;2023-02-03T06:24:31;95354.75;;;1.34;95.90
24280;BME280;12395;42.808;23.408;2023-02-03T06:26:56;95351.56;;;1.40;96.31
24280;BME280;12395;42.808;23.408;2023-02-03T06:29:22;95355.53;;;1.44;95.91
24280;BME280;12395;42.808;23.408;2023-02-03T06:31:47;95338.25;;;1.24;95.65
24280;BME280;12395;42.808;23.408;2023-02-03T06:34:12;95353.38;;;1.30;96.60
24280;BME280;12395;42.808;23.408;2023-02-03T06:36:38;95360.50;;;1.28;96.47
24280;BME280;12395;42.808;23.408;2023-02-03T06:39:03;95380.16;;;1.32;96.62
24280;BME280;12395;42.808;23.408;2023-02-03T06:41:29;95373.13;;;1.33;96.74
24280;BME280;12395;42.808;23.408;2023-02-03T06:43:55;95381.63;;;1.44;96.36
24280;BME280;12395;42.808;23.408;2023-02-03T06:46:20;95386.28;;;1.50;95.73
24280;BME280;12395;42.808;23.408;2023-02-03T06:48:46;95401.66;;;1.63;94.99
24280;BME280;12395;42.808;23.408;2023-02-03T06:51:11;95391.63;;;1.58;94.57
24280;BME280;12395;42.808;23.408;2023-02-03T06:53:36;95397.84;;;1.58;94.01
24280;BME280;12395;42.808;23.408;2023-02-03T06:56:02;95397.53;;;1.61;93.30
24280;BME280;12395;42.808;23.408;2023-02-03T06:58:27;95397.41;;;1.52;93.34
24280;BME280;12395;42.808;23.408;2023-02-03T07:00:56;95380.41;;;1.39;92.27
24280;BME280;12395;42.808;23.408;2023-02-03T07:03:22;95397.56;;;1.51;92.72
24280;BME280;12395;42.808;23.408;2023-02-03T07:05:47;95394.13;;;1.50;91.97
24280;BME280;12395;42.808;23.408;2023-02-03T07:08:12;95400.72;;;1.54;92.23
24280;BME280;12395;42.808;23.408;2023-02-03T07:10:38;95403.59;;;1.61;92.75
24280;BME280;12395;42.808;23.408;2023-02-03T07:13:05;95405.78;;;1.66;93.89
24280;BME280;12395;42.808;23.408;2023-02-03T07:15:30;95402.31;;;1.75;93.44
24280;BME280;12395;42.808;23.408;2023-02-03T07:17:56;95402.19;;;1.76;93.24
24280;BME280;12395;42.808;23.408;2023-02-03T07:20:22;95421.75;;;1.99;92.28
24280;BME280;12395;42.808;23.408;2023-02-03T07:22:55;95413.91;;;2.09;91.45
24280;BME280;12395;42.808;23.408;2023-02-03T07:25:21;95392.69;;;2.12;91.95
24280;BME280;12395;42.808;23.408;2023-02-03T07:27:47;95413.41;;;2.23;89.81
24280;BME280;12395;42.808;23.408;2023-02-03T07:30:13;95409.25;;;2.30;89.61
24280;BME280;12395;42.808;23.408;2023-02-03T07:32:38;95427.44;;;2.59;87.34
24280;BME280;12395;42.808;23.408;2023-02-03T07:35:04;95408.41;;;2.57;86.37
24280;BME280;12395;42.808;23.408;2023-02-03T07:37:29;95419.41;;;2.87;86.83
24280;BME280;12395;42.808;23.408;2023-02-03T07:39:55;95425.38;;;2.97;85.79
24280;BME280;12395;42.808;23.408;2023-02-03T07:42:20;95433.63;;;3.02;84.17
24280;BME280;12395;42.808;23.408;2023-02-03T07:44:47;95436.19;;;3.12;83.82
24280;BME280;12395;42.808;23.408;2023-02-03T07:47:12;95437.59;;;3.06;82.24
24280;BME280;12395;42.808;23.408;2023-02-03T07:49:38;95445.53;;;2.97;81.98
24280;BME280;12395;42.808;23.408;2023-02-03T07:52:03;95453.00;;;3.09;81.48
24280;BME280;12395;42.808;23.408;2023-02-03T07:54:29;95453.28;;;3.06;81.36
24280;BME280;12395;42.808;23.408;2023-02-03T07:56:54;95440.19;;;3.06;80.07
24280;BME280;12395;42.808;23.408;2023-02-03T07:59:20;95446.88;;;3.19;79.69
24280;BME280;12395;42.808;23.408;2023-02-03T08:01:45;95461.44;;;3.21;79.20
24280;BME280;12395;42.808;23.408;2023-02-03T08:04:11;95454.81;;;3.27;78.27
24280;BME280;12395;42.808;23.408;2023-02-03T08:06:41;95458.69;;;3.23;77.83
24280;BME280;12395;42.808;23.408;2023-02-03T08:09:06;95450.69;;;3.24;77.71
24280;BME280;12395;42.808;23.408;2023-02-03T08:11:32;95451.56;;;3.15;77.37
24280;BME280;12395;42.808;23.408;2023-02-03T08:13:57;95453.91;;;3.18;76.90
24280;BME280;12395;42.808;23.408;2023-02-03T08:16:22;95457.13;;;3.12;78.06
24280;BME280;12395;42.808;23.408;2023-02-03T08:18:48;95455.31;;;3.12;76.93
24280;BME280;12395;42.808;23.408;2023-02-03T08:21:13;95449.13;;;3.13;76.20
24280;BME280;12395;42.808;23.408;2023-02-03T08:23:39;95462.38;;;3.12;76.87
24280;BME280;12395;42.808;23.408;2023-02-03T08:26:04;95467.22;;;3.25;78.40
24280;BME280;12395;42.808;23.408;2023-02-03T08:28:30;95447.53;;;3.38;78.23
24280;BME280;12395;42.808;23.408;2023-02-03T08:30:55;95459.06;;;3.45;76.46
24280;BME280;12395;42.808;23.408;2023-02-03T08:33:21;95455.72;;;3.53;76.60
24280;BME280;12395;42.808;23.408;2023-02-03T08:35:48;95470.09;;;3.74;76.39
24280;BME280;12395;42.808;23.408;2023-02-03T08:38:14;95469.31;;;3.74;73.08
24280;BME280;12395;42.808;23.408;2023-02-03T08:40:41;95461.91;;;3.69;74.99
24280;BME280;12395;42.808;23.408;2023-02-03T08:43:06;95483.16;;;3.66;74.25
24280;BME280;12395;42.808;23.408;2023-02-03T08:45:32;95470.72;;;3.51;72.65
24280;BME280;12395;42.808;23.408;2023-02-03T08:47:57;95458.44;;;3.51;73.83
24280;BME280;12395;42.808;23.408;2023-02-03T08:50:23;95470.19;;;3.65;72.54
24280;BME280;12395;42.808;23.408;2023-02-03T08:52:48;95478.50;;;3.78;71.42
24280;BME280;12395;42.808;23.408;2023-02-03T08:55:13;95479.06;;;3.89;72.36
24280;BME280;12395;42.808;23.408;2023-02-03T08:57:39;95483.03;;;3.93;67.97
24280;BME280;12395;42.808;23.408;2023-02-03T09:00:07;95483.41;;;3.99;67.03
24280;BME280;12395;42.808;23.408;2023-02-03T09:02:33;95485.16;;;4.16;66.75
24280;BME280;12395;42.808;23.408;2023-02-03T09:04:59;95475.53;;;4.24;66.26
24280;BME280;12395;42.808;23.408;2023-02-03T09:07:24;95466.13;;;4.39;66.80
24280;BME280;12395;42.808;23.408;2023-02-03T09:09:50;95484.53;;;4.47;64.47
24280;BME280;12395;42.808;23.408;2023-02-03T09:12:16;95469.56;;;4.40;65.45
24280;BME280;12395;42.808;23.408;2023-02-03T09:14:41;95466.41;;;4.36;64.56
24280;BME280;12395;42.808;23.408;2023-02-03T09:17:08;95462.00;;;4.37;66.63
24280;BME280;12395;42.808;23.408;2023-02-03T09:19:34;95452.53;;;4.44;66.10
24280;BME280;12395;42.808;23.408;2023-02-03T09:22:00;95443.22;;;4.49;64.19
24280;BME280;12395;42.808;23.408;2023-02-03T09:24:25;95442.75;;;4.54;63.71
24280;BME280;12395;42.808;23.408;2023-02-03T09:26:51;95456.28;;;4.75;64.65
24280;BME280;12395;42.808;23.408;2023-02-03T09:29:17;95428.06;;;4.77;64.59
24280;BME280;12395;42.808;23.408;2023-02-03T09:31:43;95456.84;;;5.03;63.99
24280;BME280;12395;42.808;23.408;2023-02-03T09:34:11;95427.31;;;5.01;61.79
24280;BME280;12395;42.808;23.408;2023-02-03T09:36:37;95445.06;;;5.07;62.08
24280;BME280;12395;42.808;23.408;2023-02-03T09:39:02;95435.41;;;5.23;64.23
24280;BME280;12395;42.808;23.408;2023-02-03T09:46:47;95451.38;;;5.38;63.01
24280;BME280;12395;42.808;23.408;2023-02-03T09:49:26;95451.22;;;5.56;64.04
24280;BME280;12395;42.808;23.408;2023-02-03T09:52:04;95440.19;;;5.44;62.35
24280;BME280;12395;42.808;23.408;2023-02-03T09:56:59;95452.63;;;5.10;61.53
24280;BME280;12395;42.808;23.408;2023-02-03T09:59:31;95423.25;;;5.06;62.94
24280;BME280;12395;42.808;23.408;2023-02-03T10:02:00;95436.88;;;5.18;62.97
24280;BME280;12395;42.808;23.408;2023-02-03T10:04:37;95439.53;;;5.34;63.28
24280;BME280;12395;42.808;23.408;2023-02-03T10:09:55;95454.22;;;5.03;62.15
24280;BME280;12395;42.808;23.408;2023-02-03T10:12:44;95428.47;;;4.98;64.34
24280;BME280;12395;42.808;23.408;2023-02-03T10:17:57;95442.44;;;5.07;62.73
24280;BME280;12395;42.808;23.408;2023-02-03T10:23:34;95422.78;;;5.27;61.73
24280;BME280;12395;42.808;23.408;2023-02-03T10:26:06;95422.06;;;5.01;62.03
24280;BME280;12395;42.808;23.408;2023-02-03T10:28:40;95426.34;;;4.94;62.54
24280;BME280;12395;42.808;23.408;2023-02-03T10:31:16;95427.28;;;4.85;60.44
24280;BME280;12395;42.808;23.408;2023-02-03T10:33:43;95416.38;;;4.63;59.24
24280;BME280;12395;42.808;23.408;2023-02-03T10:41:53;95426.41;;;4.34;60.40
24280;BME280;12395;42.808;23.408;2023-02-03T10:44:26;95427.69;;;4.30;61.22
24280;BME280;12395;42.808;23.408;2023-02-03T10:46:56;95411.94;;;4.22;64.39
24280;BME280;12395;42.808;23.408;2023-02-03T10:49:21;95415.66;;;4.45;64.86
24280;BME280;12395;42.808;23.408;2023-02-03T10:51:51;95423.63;;;4.78;62.41
24280;BME280;12395;42.808;23.408;2023-02-03T10:54:34;95444.53;;;4.95;56.59
24280;BME280;12395;42.808;23.408;2023-02-03T10:57:13;95487.31;;;4.88;55.62
24280;BME280;12395;42.808;23.408;2023-02-03T10:59:40;95442.28;;;5.00;56.48
24280;BME280;12395;42.808;23.408;2023-02-03T11:02:21;95450.28;;;4.99;55.66
24280;BME280;12395;42.808;23.408;2023-02-03T11:04:47;95417.75;;;4.84;55.21
24280;BME280;12395;42.808;23.408;2023-02-03T11:07:25;95420.25;;;5.01;57.89
24280;BME280;12395;42.808;23.408;2023-02-03T11:09:51;95395.84;;;5.09;58.98
24280;BME280;12395;42.808;23.408;2023-02-03T11:12:19;95413.91;;;5.28;57.79
24280;BME280;12395;42.808;23.408;2023-02-03T11:14:50;95391.59;;;5.32;58.58
24280;BME280;12395;42.808;23.408;2023-02-03T11:17:21;95417.22;;;5.62;55.87
24280;BME280;12395;42.808;23.408;2023-02-03T11:19:58;95421.00;;;5.60;52.00
24280;BME280;12395;42.808;23.408;2023-02-03T11:22:37;95412.94;;;5.61;51.14
24280;BME280;12395;42.808;23.408;2023-02-03T11:25:13;95412.59;;;5.56;51.29
24280;BME280;12395;42.808;23.408;2023-02-03T11:27:40;95394.56;;;5.53;50.70
24280;BME280;12395;42.808;23.408;2023-02-03T11:30:26;95402.59;;;5.68;51.37
24280;BME280;12395;42.808;23.408;2023-02-03T11:32:54;95398.19;;;5.60;52.46
24280;BME280;12395;42.808;23.408;2023-02-03T11:35:25;95389.28;;;5.53;51.91
24280;BME280;12395;42.808;23.408;2023-02-03T11:37:53;95388.13;;;5.39;52.48
24280;BME280;12395;42.808;23.408;2023-02-03T11:45:36;95380.41;;;5.54;52.99
24280;BME280;12395;42.808;23.408;2023-02-03T11:51:24;95379.09;;;5.50;54.87
24280;BME280;12395;42.808;23.408;2023-02-03T11:54:05;95359.72;;;5.59;55.79
24280;BME280;12395;42.808;23.408;2023-02-03T12:19:39;95393.88;;;5.67;49.36
24280;BME280;12395;42.808;23.408;2023-02-03T12:29:33;95364.00;;;5.36;49.39
24280;BME280;12395;42.808;23.408;2023-02-03T12:32:29;95385.34;;;5.33;50.13
24280;BME280;12395;42.808;23.408;2023-02-03T12:37:58;95379.75;;;5.12;47.99
24280;BME280;12395;42.808;23.408;2023-02-03T12:40:34;95377.06;;;4.80;47.25
24280;BME280;12395;42.808;23.408;2023-02-03T12:45:50;95366.25;;;4.83;49.84
24280;BME280;12395;42.808;23.408;2023-02-03T12:48:21;95387.81;;;4.60;48.62
24280;BME280;12395;42.808;23.408;2023-02-03T12:50:53;95366.81;;;4.52;49.07
24280;BME280;12395;42.808;23.408;2023-02-03T12:53:33;95367.50;;;4.62;48.88
24280;BME280;12395;42.808;23.408;2023-02-03T12:56:06;95379.66;;;4.72;47.72
24280;BME280;12395;42.808;23.408;2023-02-03T12:58:49;95374.84;;;4.51;48.96
24280;BME280;12395;42.808;23.408;2023-02-03T13:01:30;95366.16;;;4.50;48.43
24280;BME280;12395;42.808;23.408;2023-02-03T13:12:42;95366.44;;;4.39;46.39
24280;BME280;12395;42.808;23.408;2023-02-03T13:15:29;95360.09;;;4.50;48.10
24280;BME280;12395;42.808;23.408;2023-02-03T13:18:02;95347.97;;;4.49;47.55
24280;BME280;12395;42.808;23.408;2023-02-03T13:20:32;95342.34;;;4.44;48.26
24280;BME280;12395;42.808;23.408;2023-02-03T13:23:04;95344.97;;;4.44;48.43
24280;BME280;12395;42.808;23.408;2023-02-03T13:29:00;95345.44;;;4.31;48.42
24280;BME280;12395;42.808;23.408;2023-02-03T13:39:45;95353.59;;;4.28;48.39
24280;BME280;12395;42.808;23.408;2023-02-03T13:42:25;95344.59;;;4.23;49.00
24280;BME280;12395;42.808;23.408;2023-02-03T13:44:58;95338.81;;;4.19;47.96
24280;BME280;12395;42.808;23.408;2023-02-03T13:47:29;95362.31;;;4.29;48.30
24280;BME280;12395;42.808;23.408;2023-02-03T13:50:05;95366.88;;;4.27;48.28
24280;BME280;12395;42.808;23.408;2023-02-03T13:52:44;95347.69;;;4.18;47.67
24280;BME280;12395;42.808;23.408;2023-02-03T13:58:00;95368.25;;;4.05;48.96
24280;BME280;12395;42.808;23.408;2023-02-03T14:03:17;95362.91;;;4.15;50.57
24280;BME280;12395;42.808;23.408;2023-02-03T14:05:47;95360.31;;;4.23;49.70
24280;BME280;12395;42.808;23.408;2023-02-03T14:19:04;95372.16;;;4.01;49.04
24280;BME280;12395;42.808;23.408;2023-02-03T14:21:42;95343.31;;;3.93;49.99
24280;BME280;12395;42.808;23.408;2023-02-03T14:24:11;95338.69;;;3.87;49.99
24280;BME280;12395;42.808;23.408;2023-02-03T14:26:43;95347.50;;;3.86;51.15
24280;BME280;12395;42.808;23.408;2023-02-03T14:29:33;95363.88;;;3.80;51.05
24280;BME280;12395;42.808;23.408;2023-02-03T14:32:07;95365.50;;;3.81;51.12
24280;BME280;12395;42.808;23.408;2023-02-03T14:34:42;95354.66;;;3.76;51.89
24280;BME280;12395;42.808;23.408;2023-02-03T14:37:13;95350.59;;;3.81;52.86
24280;BME280;12395;42.808;23.408;2023-02-03T14:40:06;95360.56;;;3.78;52.04
24280;BME280;12395;42.808;23.408;2023-02-03T14:43:10;95353.53;;;3.78;51.83
24280;BME280;12395;42.808;23.408;2023-02-03T14:56:45;95372.25;;;3.40;53.06
24280;BME280;12395;42.808;23.408;2023-02-03T14:59:37;95354.94;;;3.22;54.09
24280;BME280;12395;42.808;23.408;2023-02-03T15:02:11;95360.53;;;3.27;55.00
24280;BME280;12395;42.808;23.408;2023-02-03T15:04:39;95335.72;;;3.13;56.08
24280;BME280;12395;42.808;23.408;2023-02-03T15:07:05;95330.09;;;3.08;56.36
24280;BME280;12395;42.808;23.408;2023-02-03T15:09:43;95314.50;;;2.98;56.76
24280;BME280;12395;42.808;23.408;2023-02-03T15:12:18;95310.38;;;2.96;57.36
24280;BME280;12395;42.808;23.408;2023-02-03T15:14:44;95301.56;;;2.97;58.33
24280;BME280;12395;42.808;23.408;2023-02-03T15:17:12;95314.22;;;3.01;58.43
24280;BME280;12395;42.808;23.408;2023-02-03T15:19:40;95305.47;;;2.93;58.25
24280;BME280;12395;42.808;23.408;2023-02-03T15:22:21;95298.97;;;2.79;59.06
24280;BME280;12395;42.808;23.408;2023-02-03T15:24:47;95285.06;;;2.61;59.81